createdAt,value
2022-10-11T00:01:03.413Z,76.30
2022-10-11T00:03:36.368Z,76.10
2022-10-11T00:06:05.898Z,76.00
2022-10-11T00:08:36.394Z,76.00
2022-10-11T00:11:06.522Z,75.90
2022-10-11T00:13:41.129Z,75.90
2022-10-11T00:16:12.884Z,76.00
2022-10-11T00:18:40.304Z,76.10
2022-10-11T00:21:10.484Z,76.10
2022-10-11T00:23:38.306Z,76.10
2022-10-11T00:26:09.195Z,76.10
2022-10-11T00:28:37.003Z,76.00
2022-10-11T00:31:15.112Z,76.00
2022-10-11T00:33:42.546Z,76.10
2022-10-11T00:36:10.339Z,76.10
2022-10-11T00:38:38.791Z,76.10
2022-10-11T00:41:06.279Z,76.20
2022-10-11T00:43:35.851Z,76.30
2022-10-11T00:46:24.014Z,76.30
2022-10-11T00:48:59.255Z,76.40
2022-10-11T00:51:58.623Z,76.40
2022-10-11T00:54:30.822Z,76.50
2022-10-11T00:57:07.326Z,76.60
2022-10-11T00:59:41.555Z,76.80
2022-10-11T01:02:10.107Z,76.80
2022-10-11T01:04:37.257Z,76.70
2022-10-11T01:07:04.379Z,76.70
2022-10-11T01:09:31.919Z,76.70
2022-10-11T01:12:02.973Z,76.50
2022-10-11T01:14:32.655Z,76.50
2022-10-11T01:17:09.034Z,76.50
2022-10-11T01:19:56.832Z,76.40
2022-10-11T01:22:57.614Z,76.30
2022-10-11T01:25:57.975Z,76.30
2022-10-11T01:28:49.521Z,76.20
2022-10-11T01:31:37.005Z,76.10
2022-10-11T01:34:15.281Z,76.10
2022-10-11T01:36:57.674Z,76.10
2022-10-11T01:39:38.135Z,76.10
2022-10-11T01:42:10.183Z,76.20
2022-10-11T01:44:39.640Z,76.10
2022-10-11T01:47:06.570Z,76.30
2022-10-11T01:49:33.639Z,76.40
2022-10-11T01:52:05.807Z,76.40
2022-10-11T01:54:57.010Z,76.40
2022-10-11T01:57:53.531Z,76.40
2022-10-11T02:00:28.263Z,76.40
2022-10-11T02:03:16.457Z,76.40
2022-10-11T02:05:47.294Z,76.30
2022-10-11T02:08:43.119Z,76.30
2022-10-11T02:11:19.356Z,76.40
2022-10-11T02:14:21.533Z,76.30
2022-10-11T02:16:55.247Z,76.30
2022-10-11T02:19:30.340Z,76.40
2022-10-11T02:22:02.863Z,76.40
2022-10-11T02:24:33.422Z,76.40
2022-10-11T02:27:03.994Z,76.40
2022-10-11T02:29:36.153Z,76.50
2022-10-11T02:32:04.000Z,76.60
2022-10-11T02:34:38.473Z,76.60
2022-10-11T02:37:27.123Z,76.60
2022-10-11T02:40:01.519Z,76.60
2022-10-11T02:42:37.295Z,76.70
2022-10-11T02:45:19.067Z,76.80
2022-10-11T02:47:47.340Z,76.80
2022-10-11T02:50:15.103Z,76.80
2022-10-11T02:52:42.245Z,76.90
2022-10-11T02:55:10.377Z,76.80
2022-10-11T02:57:38.315Z,76.80
2022-10-11T03:00:06.481Z,76.70
2022-10-11T03:02:33.657Z,76.70
2022-10-11T03:05:00.693Z,76.70
2022-10-11T03:07:27.719Z,76.70
2022-10-11T03:09:54.681Z,76.60
2022-10-11T03:12:24.772Z,76.70
2022-10-11T03:14:53.064Z,76.70
2022-10-11T03:17:35.606Z,76.70
2022-10-11T03:20:04.809Z,76.70
2022-10-11T03:22:31.829Z,76.80
2022-10-11T03:25:03.663Z,76.80
2022-10-11T03:27:34.116Z,76.80
2022-10-11T03:30:01.819Z,76.70
2022-10-11T03:32:29.661Z,76.60
2022-10-11T03:34:56.865Z,76.70
2022-10-11T03:37:26.238Z,76.70
2022-10-11T03:39:57.306Z,76.80
2022-10-11T03:42:26.848Z,76.70
2022-10-11T03:44:53.891Z,76.70
2022-10-11T03:47:20.961Z,76.80
2022-10-11T03:49:51.130Z,76.80
2022-10-11T03:52:18.153Z,76.90
2022-10-11T03:54:45.157Z,76.90
2022-10-11T03:57:12.401Z,76.80
2022-10-11T03:59:39.266Z,76.80
2022-10-11T04:02:06.512Z,76.80
2022-10-11T04:04:33.700Z,76.80
2022-10-11T04:07:00.610Z,76.80
2022-10-11T04:09:27.663Z,76.80
2022-10-11T04:11:57.426Z,76.80
2022-10-11T04:14:24.464Z,76.90
2022-10-11T04:16:51.355Z,76.90
2022-10-11T04:19:18.589Z,76.90
2022-10-11T04:21:45.466Z,76.90
2022-10-11T04:24:12.628Z,76.90
2022-10-11T04:26:39.644Z,76.90
2022-10-11T04:29:09.794Z,76.90
2022-10-11T04:31:36.832Z,76.90
2022-10-11T04:34:03.841Z,76.90
2022-10-11T04:36:33.078Z,76.90
2022-10-11T04:39:01.723Z,77.00
2022-10-11T04:41:29.528Z,77.00
2022-10-11T04:43:56.763Z,77.00
2022-10-11T04:46:24.286Z,77.00
2022-10-11T04:48:51.559Z,77.00
2022-10-11T04:51:18.907Z,77.00
2022-10-11T04:53:48.624Z,77.00
2022-10-11T04:56:18.374Z,77.00
2022-10-11T04:58:48.225Z,76.90
2022-10-11T05:01:15.675Z,77.00
2022-10-11T05:03:42.853Z,76.90
2022-10-11T05:06:10.120Z,77.00
2022-10-11T05:08:38.310Z,76.90
2022-10-11T05:11:07.481Z,77.00
2022-10-11T05:13:36.133Z,77.00
2022-10-11T05:16:08.445Z,77.10
2022-10-11T05:18:37.721Z,77.10
2022-10-11T05:21:07.603Z,77.10
2022-10-11T05:23:36.230Z,77.10
2022-10-11T05:26:04.007Z,77.00
2022-10-11T05:28:31.734Z,77.10
2022-10-11T05:30:58.912Z,77.10
2022-10-11T05:33:25.950Z,77.20
2022-10-11T05:35:53.005Z,77.10
2022-10-11T05:38:20.060Z,77.20
2022-10-11T05:40:47.249Z,77.30
2022-10-11T05:43:16.470Z,77.20
2022-10-11T05:45:44.748Z,77.20
2022-10-11T05:48:12.650Z,77.20
2022-10-11T05:50:40.502Z,77.40
2022-10-11T05:53:08.464Z,77.40
2022-10-11T05:55:40.325Z,77.30
2022-10-11T05:58:15.778Z,77.40
2022-10-11T06:00:45.861Z,77.40
2022-10-11T06:03:13.852Z,77.30
2022-10-11T06:05:40.955Z,77.40
2022-10-11T06:08:10.098Z,77.40
2022-10-11T06:10:38.481Z,77.40
2022-10-11T06:13:06.373Z,77.50
2022-10-11T06:15:34.313Z,77.30
2022-10-11T06:18:04.410Z,77.50
2022-10-11T06:20:31.552Z,77.60
2022-10-11T06:23:00.863Z,77.80
2022-10-11T06:25:29.750Z,77.90
2022-10-11T06:27:58.792Z,78.00
2022-10-11T06:30:28.850Z,77.90
2022-10-11T06:32:56.053Z,78.00
2022-10-11T06:35:23.703Z,78.00
2022-10-11T06:37:56.331Z,78.00
2022-10-11T06:40:25.791Z,78.00
2022-10-11T06:42:57.628Z,78.00
2022-10-11T06:45:29.394Z,78.10
2022-10-11T06:47:56.547Z,78.20
2022-10-11T06:50:54.285Z,78.30
2022-10-11T06:53:14.419Z,78.20
2022-10-11T06:55:47.105Z,78.30
2022-10-11T06:58:15.148Z,78.30
2022-10-11T07:00:42.769Z,78.50
2022-10-11T07:03:12.936Z,78.70
2022-10-11T07:05:40.533Z,78.90
2022-10-11T07:08:08.756Z,79.00
2022-10-11T07:10:40.313Z,79.00
2022-10-11T07:13:21.357Z,79.10
2022-10-11T07:16:22.779Z,79.20
2022-10-11T07:18:58.742Z,79.20
2022-10-11T07:21:27.275Z,79.10
2022-10-11T07:23:54.523Z,78.90
2022-10-11T07:26:21.599Z,78.90
2022-10-11T07:28:48.567Z,78.70
2022-10-11T07:31:19.198Z,78.60
2022-10-11T07:33:46.678Z,78.60
2022-10-11T07:36:13.962Z,78.70
2022-10-11T07:38:45.833Z,78.70
2022-10-11T07:41:13.236Z,78.70
2022-10-11T07:43:40.156Z,78.70
2022-10-11T07:46:08.280Z,78.80
2022-10-11T07:48:36.656Z,78.80
2022-10-11T07:51:08.319Z,78.80
2022-10-11T07:53:44.020Z,78.80
2022-10-11T07:56:13.439Z,78.80
2022-10-11T07:58:41.782Z,78.70
2022-10-11T08:01:10.229Z,78.70
2022-10-11T08:03:41.215Z,78.70
2022-10-11T08:06:09.871Z,78.60
2022-10-11T08:08:38.049Z,78.30
2022-10-11T08:11:06.238Z,78.30
2022-10-11T08:13:33.578Z,78.10
2022-10-11T08:16:01.266Z,78.00
2022-10-11T08:18:28.417Z,77.90
2022-10-11T08:20:56.005Z,78.00
2022-10-11T08:23:22.972Z,78.00
2022-10-11T08:25:49.919Z,77.90
2022-10-11T08:28:18.031Z,77.60
2022-10-11T08:30:53.121Z,77.60
2022-10-11T08:33:22.302Z,77.40
2022-10-11T08:35:50.542Z,77.30
2022-10-11T08:38:18.306Z,77.00
2022-10-11T08:40:56.150Z,76.90
2022-10-11T08:43:38.121Z,76.60
2022-10-11T08:46:07.949Z,76.40
2022-10-11T08:48:40.095Z,75.60
2022-10-11T08:51:21.050Z,75.40
2022-10-11T08:53:57.370Z,75.30
2022-10-11T08:56:26.601Z,75.20
2022-10-11T08:59:14.347Z,74.90
2022-10-11T09:01:47.596Z,74.40
2022-10-11T09:04:17.377Z,74.50
2022-10-11T09:07:04.782Z,73.70
2022-10-11T09:09:53.444Z,73.30
2022-10-11T09:12:38.384Z,73.70
2022-10-11T09:15:47.018Z,73.50
2022-10-11T09:18:56.883Z,73.00
2022-10-11T09:21:42.237Z,72.50
2022-10-11T09:24:11.870Z,71.80
2022-10-11T09:26:50.094Z,70.80
2022-10-11T09:29:42.957Z,70.30
2022-10-11T09:32:16.127Z,70.40
2022-10-11T09:34:43.785Z,70.30
2022-10-11T09:37:29.981Z,69.20
2022-10-11T09:40:21.687Z,69.20
2022-10-11T09:42:48.765Z,68.20
2022-10-11T09:45:21.004Z,67.70
2022-10-11T09:47:50.978Z,66.80
2022-10-11T09:50:25.873Z,65.80
2022-10-11T09:52:55.289Z,66.00
2022-10-11T09:55:40.301Z,66.00
2022-10-11T09:58:25.769Z,65.80
2022-10-11T10:01:02.768Z,64.90
2022-10-11T10:03:39.787Z,65.70
2022-10-11T10:06:16.353Z,66.30
2022-10-11T10:08:45.595Z,66.20
2022-10-11T10:11:12.999Z,65.40
2022-10-11T10:13:56.390Z,65.00
2022-10-11T10:16:29.686Z,65.30
2022-10-11T10:19:03.542Z,64.60
2022-10-11T10:21:36.766Z,63.80
2022-10-11T10:24:33.086Z,63.40
2022-10-11T10:27:22.787Z,63.60
2022-10-11T10:30:07.870Z,63.20
2022-10-11T10:32:51.586Z,63.10
2022-10-11T10:35:32.795Z,62.80
2022-10-11T10:38:16.599Z,60.90
2022-10-11T10:41:03.864Z,58.10
2022-10-11T10:43:34.947Z,59.00
2022-10-11T10:46:12.915Z,59.30
2022-10-11T10:49:34.520Z,59.40
2022-10-11T10:52:11.551Z,59.10
2022-10-11T10:54:45.497Z,58.90
2022-10-11T10:57:19.268Z,58.90
2022-10-11T11:00:10.876Z,58.60
2022-10-11T11:02:41.664Z,57.70
2022-10-11T11:05:23.696Z,58.80
2022-10-11T11:08:00.740Z,58.80
2022-10-11T11:10:56.054Z,58.50
2022-10-11T11:13:45.700Z,57.20
2022-10-11T11:16:32.064Z,56.80
2022-10-11T11:19:21.021Z,55.90
2022-10-11T11:22:12.821Z,55.00
2022-10-11T11:24:46.250Z,55.30
2022-10-11T11:27:18.920Z,55.40
2022-10-11T11:30:01.537Z,55.70
2022-10-11T11:32:28.392Z,54.70
2022-10-11T11:35:02.217Z,54.50
2022-10-11T11:37:34.710Z,54.10
2022-10-11T11:40:18.244Z,53.30
2022-10-11T11:42:51.519Z,52.90
2022-10-11T11:45:26.155Z,53.00
2022-10-11T11:48:20.923Z,52.20
2022-10-11T11:55:11.241Z,53.20
2022-10-11T11:58:00.186Z,52.70
2022-10-11T12:00:43.052Z,51.60
2022-10-11T12:03:16.289Z,51.80
2022-10-11T12:06:16.752Z,50.90
2022-10-11T12:09:05.927Z,50.80
2022-10-11T12:11:59.284Z,51.60
2022-10-11T12:14:30.568Z,50.80
2022-10-11T12:17:21.604Z,50.80
2022-10-11T12:20:43.454Z,50.50
2022-10-11T12:23:28.755Z,50.60
2022-10-11T12:26:33.481Z,50.20
2022-10-11T12:29:28.465Z,50.70
2022-10-11T12:32:06.501Z,50.60
2022-10-11T12:35:11.265Z,49.60
2022-10-11T12:37:41.202Z,49.40
2022-10-11T12:40:58.186Z,49.40
2022-10-11T12:43:35.090Z,49.10
2022-10-11T12:46:40.260Z,50.20
2022-10-11T12:49:41.670Z,49.80
2022-10-11T12:53:04.598Z,49.90
2022-10-11T12:55:52.901Z,50.00
2022-10-11T12:58:55.192Z,49.70
2022-10-11T13:01:41.136Z,49.30
2022-10-11T13:04:29.375Z,48.50
2022-10-11T13:07:42.045Z,48.30
2022-10-11T13:10:46.800Z,47.80
2022-10-11T13:14:04.104Z,48.10
2022-10-11T13:17:08.691Z,48.40
2022-10-11T13:19:38.088Z,48.60
2022-10-11T13:22:16.394Z,48.70
2022-10-11T13:24:43.747Z,47.90
2022-10-11T13:27:20.280Z,47.40
2022-10-11T13:29:49.022Z,46.50
2022-10-11T13:32:22.139Z,46.20
2022-10-11T13:37:32.104Z,47.30
2022-10-11T13:39:59.230Z,47.20
2022-10-11T13:42:30.815Z,47.70
2022-10-11T13:44:59.018Z,48.20
2022-10-11T13:47:31.784Z,48.50
2022-10-11T13:50:10.990Z,48.70
2022-10-11T13:52:57.563Z,49.60
2022-10-11T13:55:32.013Z,49.70
2022-10-11T13:58:00.779Z,50.30
2022-10-11T14:00:39.510Z,50.70
2022-10-11T14:03:20.334Z,51.20
2022-10-11T14:05:59.417Z,51.70
2022-10-11T14:08:38.281Z,51.80
2022-10-11T14:11:07.173Z,52.00
2022-10-11T14:13:40.868Z,51.90
2022-10-11T14:16:13.288Z,51.50
2022-10-11T14:19:10.009Z,51.40
2022-10-11T14:21:46.825Z,51.10
2022-10-11T14:24:15.037Z,51.40
2022-10-11T14:26:49.062Z,51.50
2022-10-11T14:29:36.635Z,51.60
2022-10-11T14:32:08.739Z,52.00
2022-10-11T14:34:36.889Z,52.20
2022-10-11T14:37:04.109Z,52.20
2022-10-11T14:39:33.146Z,52.40
2022-10-11T14:42:00.864Z,52.90
2022-10-11T14:44:27.769Z,53.30
2022-10-11T14:46:55.127Z,53.70
2022-10-11T14:49:28.112Z,53.60
2022-10-11T14:51:58.048Z,53.30
2022-10-11T14:54:30.820Z,53.40
2022-10-11T14:57:01.175Z,53.10
2022-10-11T14:59:34.596Z,53.20
2022-10-11T15:02:02.474Z,53.40
2022-10-11T15:04:29.804Z,53.20
2022-10-11T15:06:57.863Z,53.30
2022-10-11T15:09:28.515Z,53.60
2022-10-11T15:11:56.794Z,53.30
2022-10-11T15:14:25.376Z,53.20
2022-10-11T15:16:53.200Z,53.40
2022-10-11T15:19:23.632Z,53.20
2022-10-11T15:21:51.119Z,52.90
2022-10-11T15:24:20.251Z,52.80
2022-10-11T15:26:48.689Z,52.30
2022-10-11T15:29:18.010Z,51.90
2022-10-11T15:31:47.151Z,52.20
2022-10-11T15:34:14.384Z,52.20
2022-10-11T15:36:41.659Z,52.70
2022-10-11T15:39:26.067Z,52.70
2022-10-11T15:41:53.439Z,53.00
2022-10-11T15:44:20.560Z,52.90
2022-10-11T15:46:47.822Z,53.40
2022-10-11T15:49:15.120Z,53.60
2022-10-11T15:51:42.250Z,53.80
2022-10-11T15:54:09.257Z,53.80
2022-10-11T15:56:36.571Z,53.80
2022-10-11T15:59:04.056Z,54.10
2022-10-11T16:01:31.343Z,54.50
2022-10-11T16:03:58.720Z,54.80
2022-10-11T16:06:25.686Z,55.00
2022-10-11T16:08:52.866Z,55.30
2022-10-11T16:11:20.058Z,55.60
2022-10-11T16:13:47.686Z,55.80
2022-10-11T16:16:14.655Z,56.10
2022-10-11T16:18:41.782Z,56.30
2022-10-11T16:21:11.435Z,56.50
2022-10-11T16:23:39.042Z,56.70
2022-10-11T16:26:09.352Z,56.70
2022-10-11T16:28:38.143Z,56.80
2022-10-11T16:31:10.160Z,57.00
2022-10-11T16:33:45.888Z,57.20
2022-10-11T16:36:32.493Z,57.30
2022-10-11T16:39:01.696Z,57.80
2022-10-11T16:41:28.642Z,57.90
2022-10-11T16:43:56.157Z,58.10
2022-10-11T16:46:23.477Z,58.30
2022-10-11T16:48:50.684Z,58.40
2022-10-11T16:51:17.714Z,58.60
2022-10-11T16:53:45.293Z,58.90
2022-10-11T16:56:12.886Z,59.00
2022-10-11T16:58:39.945Z,59.20
2022-10-11T17:01:11.266Z,59.30
2022-10-11T17:03:38.928Z,59.50
2022-10-11T17:06:07.046Z,59.60
2022-10-11T17:08:35.206Z,59.80
2022-10-11T17:11:02.799Z,59.90
2022-10-11T17:13:29.995Z,60.20
2022-10-11T17:15:59.385Z,60.40
2022-10-11T17:18:26.480Z,60.50
2022-10-11T17:21:04.812Z,60.90
2022-10-11T17:23:33.222Z,61.30
2022-10-11T17:26:07.325Z,61.40
2022-10-11T17:28:37.992Z,61.70
2022-10-11T17:31:05.900Z,62.00
2022-10-11T17:33:33.796Z,62.10
2022-10-11T17:36:01.486Z,62.20
2022-10-11T17:38:28.677Z,62.30
2022-10-11T17:41:05.980Z,62.30
2022-10-11T17:43:33.460Z,62.50
2022-10-11T17:46:04.337Z,62.80
2022-10-11T17:48:35.077Z,62.90
2022-10-11T17:51:06.661Z,63.00
2022-10-11T17:53:34.193Z,63.40
2022-10-11T17:56:05.505Z,63.70
2022-10-11T17:58:32.608Z,64.00
2022-10-11T18:01:09.522Z,64.10
2022-10-11T18:03:36.969Z,64.20
2022-10-11T18:06:12.821Z,64.40
2022-10-11T18:08:41.054Z,64.50
2022-10-11T18:11:17.897Z,64.70
2022-10-11T18:13:49.394Z,64.90
2022-10-11T18:16:22.819Z,64.90
2022-10-11T18:18:54.096Z,65.00
2022-10-11T18:21:21.453Z,64.80
2022-10-11T18:23:48.406Z,64.80
2022-10-11T18:26:24.444Z,65.00
2022-10-11T18:28:55.965Z,65.20
2022-10-11T18:31:26.819Z,65.40
2022-10-11T18:33:54.451Z,65.60
2022-10-11T18:36:27.867Z,65.70
2022-10-11T18:38:57.190Z,65.90
2022-10-11T18:41:30.813Z,66.00
2022-10-11T18:44:03.970Z,66.10
2022-10-11T18:46:38.623Z,66.20
2022-10-11T18:49:05.748Z,66.40
2022-10-11T18:51:38.030Z,66.50
2022-10-11T18:54:07.046Z,66.60
2022-10-11T18:56:36.481Z,66.80
2022-10-11T18:59:05.006Z,66.70
2022-10-11T19:01:35.659Z,66.80
2022-10-11T19:04:05.178Z,66.90
2022-10-11T19:06:35.630Z,67.00
2022-10-11T19:09:07.054Z,67.00
2022-10-11T19:11:37.530Z,67.20
2022-10-11T19:14:12.179Z,67.30
2022-10-11T19:16:42.725Z,67.20
2022-10-11T19:19:11.806Z,67.30
2022-10-11T19:21:39.602Z,67.30
2022-10-11T19:24:07.001Z,67.20
2022-10-11T19:26:40.553Z,67.30
2022-10-11T19:29:16.805Z,67.30
2022-10-11T19:31:46.944Z,67.30
2022-10-11T19:34:16.940Z,67.50
2022-10-11T19:36:47.180Z,67.70
2022-10-11T19:39:15.367Z,67.80
2022-10-11T19:41:43.624Z,67.90
2022-10-11T19:44:12.077Z,67.90
2022-10-11T19:46:54.872Z,67.90
2022-10-11T19:49:25.048Z,68.10
2022-10-11T19:51:55.816Z,68.10
2022-10-11T19:54:23.237Z,68.20
2022-10-11T19:56:52.227Z,68.20
2022-10-11T19:59:19.729Z,68.20
2022-10-11T20:01:51.963Z,68.40
2022-10-11T20:04:39.993Z,68.40
2022-10-11T20:07:06.916Z,68.40
2022-10-11T20:09:33.851Z,68.40
2022-10-11T20:12:01.406Z,68.60
2022-10-11T20:14:28.665Z,68.60
2022-10-11T20:16:58.758Z,68.70
2022-10-11T20:19:31.360Z,68.80
2022-10-11T20:21:59.932Z,68.90
2022-10-11T20:24:29.059Z,69.10
2022-10-11T20:26:56.066Z,69.20
2022-10-11T20:29:25.380Z,69.30
2022-10-11T20:31:52.763Z,69.20
2022-10-11T20:34:19.692Z,69.30
2022-10-11T20:36:49.079Z,69.30
2022-10-11T20:39:19.374Z,69.40
2022-10-11T20:41:46.572Z,69.50
2022-10-11T20:44:16.168Z,69.50
2022-10-11T20:46:43.225Z,69.60
2022-10-11T20:49:12.467Z,69.60
2022-10-11T20:51:41.869Z,69.60
2022-10-11T20:54:09.209Z,69.70
2022-10-11T20:56:37.222Z,69.70
2022-10-11T20:59:05.132Z,69.90
